Time;durP1;ratioP1;P1;durP2;ratioP2;P2;SDS_P1;SDS_P2;PMS_P1;PMS_P2;Temp;Humidity;BMP_temperature;BMP_pressure;BME280_temperature;BME280_humidity;BME280_pressure;Samples;Min_cycle;Max_cycle;Signal;HPM_P1;HPM_P2
2021/07/21 00:01:14;;;;;;;24.08;6.30;;;;;;;15.97;76.45;100644.34;5084868;28;20027;-68
2021/07/21 00:03:39;;;;;;;22.20;6.15;;;;;;;15.94;76.53;100640.00;5085022;28;20055;-68
2021/07/21 00:06:05;;;;;;;20.05;6.40;;;;;;;15.93;76.50;100638.31;5084790;28;20027;-68
2021/07/21 00:08:33;;;;;;;19.90;6.07;;;;;;;15.93;76.51;100640.94;5084857;28;20144;-68
2021/07/21 00:13:42;;;;;;;20.77;6.57;;;;;;;15.91;76.57;100640.09;5085038;28;20032;-69
2021/07/21 00:16:13;;;;;;;20.10;6.85;;;;;;;15.88;76.92;100645.41;5084505;28;20028;-69
2021/07/21 00:21:13;;;;;;;17.05;5.93;;;;;;;15.84;77.09;100631.56;5084740;28;20044;-69
2021/07/21 00:23:39;;;;;;;23.35;6.60;;;;;;;15.83;77.25;100635.06;5084561;28;20062;-68
2021/07/21 00:26:08;;;;;;;21.25;6.60;;;;;;;15.81;77.38;100634.28;5084353;28;20035;-68
2021/07/21 00:28:41;;;;;;;21.92;7.53;;;;;;;15.77;77.41;100634.41;5083168;28;20020;-69
2021/07/21 00:31:07;;;;;;;18.10;6.57;;;;;;;15.80;77.31;100635.16;5084678;28;20017;-67
2021/07/21 00:33:33;;;;;;;18.58;6.18;;;;;;;15.74;77.03;100628.34;5084472;28;20051;-69
2021/07/21 00:35:58;;;;;;;17.60;7.75;;;;;;;15.76;77.09;100633.53;5083097;28;20080;-69
2021/07/21 00:38:23;;;;;;;18.52;6.40;;;;;;;15.78;77.04;100644.84;5084162;28;20032;-69
2021/07/21 00:40:50;;;;;;;22.17;7.05;;;;;;;15.74;77.14;100646.66;5083342;28;20021;-70
2021/07/21 00:43:16;;;;;;;18.95;6.57;;;;;;;15.72;77.13;100639.72;5083923;28;20025;-69
2021/07/21 00:45:42;;;;;;;33.17;6.90;;;;;;;15.73;77.19;100646.69;5084264;28;20469;-69
2021/07/21 00:48:07;;;;;;;21.05;6.85;;;;;;;15.69;77.13;100650.28;5084118;28;20473;-69
2021/07/21 00:50:32;;;;;;;19.30;7.43;;;;;;;15.63;77.07;100650.44;5084081;28;20047;-69
2021/07/21 00:52:58;;;;;;;18.75;7.07;;;;;;;15.64;77.34;100660.03;5083974;28;20020;-69
2021/07/21 00:55:26;;;;;;;23.40;6.75;;;;;;;15.63;77.36;100660.91;5082513;28;20025;-69
2021/07/21 00:57:52;;;;;;;25.83;7.55;;;;;;;15.57;77.14;100657.56;5083487;28;20068;-69
2021/07/21 01:00:19;;;;;;;25.23;6.85;;;;;;;15.59;77.15;100660.16;5084083;28;20546;-69
2021/07/21 01:02:47;;;;;;;23.20;7.68;;;;;;;15.57;77.03;100654.97;5084007;28;20035;-69
2021/07/21 01:05:16;;;;;;;19.08;7.32;;;;;;;15.58;77.31;100669.75;5083628;28;20031;-70
2021/07/21 01:07:46;;;;;;;24.10;7.53;;;;;;;15.59;76.99;100671.47;5083875;28;20017;-69
2021/07/21 01:10:13;;;;;;;22.70;7.68;;;;;;;15.59;76.85;100674.06;5082298;28;20020;-68
2021/07/21 01:12:44;;;;;;;20.98;6.95;;;;;;;15.55;76.79;100664.59;5083734;28;20038;-68
2021/07/21 01:15:14;;;;;;;23.27;7.15;;;;;;;15.51;76.83;100672.56;5083658;28;20037;-68
2021/07/21 01:17:46;;;;;;;13.75;6.72;;;;;;;15.54;76.74;100673.34;5083556;28;20029;-69
2021/07/21 01:20:30;;;;;;;20.48;7.40;;;;;;;15.53;76.44;100671.63;5083791;28;20029;-68
2021/07/21 01:23:25;;;;;;;25.00;7.32;;;;;;;15.50;76.33;100669.06;5083428;28;20035;-69
2021/07/21 01:26:03;;;;;;;22.38;6.82;;;;;;;15.51;76.55;100672.56;5083663;28;20039;-68
2021/07/21 01:28:30;;;;;;;16.38;8.07;;;;;;;15.49;76.75;100680.44;5083301;28;20091;-70
2021/07/21 01:30:58;;;;;;;13.68;7.38;;;;;;;15.47;76.48;100679.63;5083541;28;20067;-69
2021/07/21 01:33:25;;;;;;;17.17;7.22;;;;;;;15.44;76.70;100677.06;5083412;28;20027;-68
2021/07/21 01:36:08;;;;;;;21.17;7.72;;;;;;;15.41;76.64;100677.16;5082197;28;20036;-68
2021/07/21 01:38:38;;;;;;;28.20;7.63;;;;;;;15.39;76.81;100692.03;5083352;28;20025;-68
2021/07/21 01:41:11;;;;;;;15.77;6.32;;;;;;;15.36;76.60;100685.13;5083144;28;20026;-68
2021/07/21 01:43:41;;;;;;;15.82;6.72;;;;;;;15.34;76.62;100686.91;5083435;28;20017;-68
2021/07/21 01:46:08;;;;;;;21.92;7.78;;;;;;;15.26;76.76;100678.38;5083502;28;20030;-68
2021/07/21 01:48:36;;;;;;;25.77;7.72;;;;;;;15.26;76.61;100689.69;5083023;28;20024;-68
2021/07/21 01:51:06;;;;;;;27.85;7.60;;;;;;;15.22;76.60;100693.28;5083434;28;20092;-68
2021/07/21 01:53:37;;;;;;;19.13;8.18;;;;;;;15.22;76.50;100698.53;5087704;28;20117;-69
2021/07/21 01:56:07;;;;;;;16.80;8.00;;;;;;;15.20;76.80;100695.06;5085990;28;20064;-69
2021/07/21 01:58:34;;;;;;;17.85;6.80;;;;;;;15.17;76.81;100684.69;5087220;28;20016;-69
2021/07/21 02:01:00;;;;;;;21.20;7.78;;;;;;;15.15;76.76;100694.31;5087391;28;20044;-68
2021/07/21 02:03:27;;;;;;;21.60;7.63;;;;;;;15.12;76.88;100687.41;5087060;28;20028;-68
2021/07/21 02:05:58;;;;;;;17.75;7.65;;;;;;;15.06;76.89;100683.19;5087387;28;20024;-68
2021/07/21 02:08:26;;;;;;;27.38;8.20;;;;;;;15.05;77.19;100686.69;5087234;28;20032;-69
2021/07/21 02:10:53;;;;;;;16.63;7.38;;;;;;;15.08;77.17;100691.00;5087245;28;20024;-67
2021/07/21 02:13:18;;;;;;;22.65;7.97;;;;;;;15.04;77.50;100692.81;5087395;28;20052;-68
2021/07/21 02:15:46;;;;;;;20.77;8.32;;;;;;;15.07;77.37;100690.13;5087077;28;20035;-68
2021/07/21 02:18:15;;;;;;;20.88;6.53;;;;;;;15.13;77.40;100698.75;5087374;28;20024;-68
2021/07/21 02:20:41;;;;;;;18.00;6.93;;;;;;;15.09;77.36;100693.59;5087074;28;20107;-68
2021/07/21 02:23:06;;;;;;;16.88;6.80;;;;;;;15.13;77.10;100701.34;5087199;28;20377;-68
2021/07/21 02:25:32;;;;;;;21.48;7.53;;;;;;;15.11;76.94;100702.22;5086826;28;20387;-68
2021/07/21 02:27:58;;;;;;;16.02;6.47;;;;;;;15.10;76.97;100710.09;5086691;28;20074;-68
2021/07/21 02:30:25;;;;;;;18.35;7.30;;;;;;;15.07;77.01;100711.06;5087143;28;20025;-68
2021/07/21 02:33:09;;;;;;;23.30;7.55;;;;;;;15.07;76.91;100715.41;5086893;28;20370;-68
2021/07/21 02:35:35;;;;;;;20.05;6.90;;;;;;;15.04;77.06;100718.09;5086655;28;20024;-67
2021/07/21 02:38:00;;;;;;;22.02;6.90;;;;;;;15.01;76.88;100716.41;5086439;28;20111;-70
2021/07/21 02:40:26;;;;;;;15.77;7.32;;;;;;;15.00;76.98;100714.69;5086613;28;20097;-68
2021/07/21 02:42:53;;;;;;;19.90;7.05;;;;;;;14.95;77.09;100706.09;5085260;28;20031;-69
2021/07/21 02:45:18;;;;;;;21.13;7.30;;;;;;;14.94;77.18;100709.59;5086737;28;20017;-68
2021/07/21 02:47:44;;;;;;;12.85;6.88;;;;;;;14.93;77.15;100708.75;5086400;28;20059;-67
2021/07/21 02:50:12;;;;;;;18.35;8.02;;;;;;;14.95;77.39;100711.31;5086365;28;20020;-67
2021/07/21 02:53:02;;;;;;;18.73;7.35;;;;;;;14.95;77.43;100711.31;5086577;28;20017;-68
2021/07/21 02:55:32;;;;;;;15.00;6.88;;;;;;;14.92;77.64;100709.63;5086212;28;20020;-68
2021/07/21 02:58:12;;;;;;;17.60;6.40;;;;;;;14.98;77.98;100714.72;5086070;28;20096;-67
2021/07/21 03:00:39;;;;;;;18.27;7.18;;;;;;;15.05;77.62;100712.84;5086188;28;20036;-68
2021/07/21 03:03:15;;;;;;;22.63;7.38;;;;;;;15.06;77.51;100718.94;5085110;28;20111;-68
2021/07/21 03:05:43;;;;;;;20.05;7.40;;;;;;;15.01;77.56;100705.97;5086150;28;20078;-68
2021/07/21 03:08:08;;;;;;;16.05;7.00;;;;;;;15.06;77.86;100711.97;5086015;28;20024;-68
2021/07/21 03:10:35;;;;;;;18.98;6.55;;;;;;;15.09;77.88;100706.66;5086029;28;20052;-68
2021/07/21 03:13:05;;;;;;;12.90;6.68;;;;;;;15.19;78.15;100711.69;5085959;28;20092;-69
2021/07/21 03:15:34;;;;;;;17.00;6.70;;;;;;;15.19;77.55;100709.91;5086281;28;20056;-69
2021/07/21 03:18:02;;;;;;;14.93;6.20;;;;;;;15.20;77.67;100706.41;5084763;28;20025;-68
2021/07/21 03:20:29;;;;;;;20.55;6.20;;;;;;;15.29;78.07;100715.78;5085844;28;20021;-69
2021/07/21 03:22:56;;;;;;;19.40;6.10;;;;;;;15.45;78.27;100718.03;5085637;28;20024;-69
2021/07/21 03:25:22;;;;;;;17.42;5.68;;;;;;;15.68;78.41;100727.09;5085678;28;20029;-69
2021/07/21 03:27:50;;;;;;;18.20;6.03;;;;;;;15.90;78.29;100721.31;5085712;28;20028;-68
2021/07/21 03:30:16;;;;;;;14.40;5.32;;;;;;;16.13;78.47;100723.38;5085961;28;20020;-69
2021/07/21 03:32:46;;;;;;;11.07;4.63;;;;;;;16.45;78.13;100728.63;5085690;28;20231;-68
2021/07/21 03:35:13;;;;;;;11.00;5.05;;;;;;;16.74;77.84;100719.09;5085714;28;20083;-69
2021/07/21 03:37:45;;;;;;;15.10;4.88;;;;;;;17.08;77.70;100723.34;5085412;28;20048;-69
2021/07/21 03:40:11;;;;;;;;;;;;;;;17.46;77.29;100720.41;5086148;28;20028;-69
2021/07/21 03:42:37;;;;;;;14.85;5.03;;;;;;;17.61;76.33;100726.06;5085508;28;19935;-69
2021/07/21 03:45:09;;;;;;;13.35;4.45;;;;;;;17.86;75.89;100719.97;5085456;28;20020;-69
2021/07/21 03:47:35;;;;;;;14.65;4.25;;;;;;;18.19;74.76;100724.16;5085304;28;20162;-69
2021/07/21 03:50:03;;;;;;;11.05;4.43;;;;;;;18.35;73.28;100727.09;5085433;28;20036;-68
2021/07/21 03:52:29;;;;;;;11.02;5.45;;;;;;;18.44;72.43;100726.75;5085403;28;20110;-70
2021/07/21 03:54:55;;;;;;;10.32;3.92;;;;;;;18.58;71.66;100728.00;5085297;28;20021;-69
2021/07/21 03:57:23;;;;;;;9.13;4.45;;;;;;;18.80;70.97;100722.81;5084970;28;20055;-68
2021/07/21 03:59:48;;;;;;;9.75;3.50;;;;;;;19.08;70.32;100728.78;5085212;28;20099;-70
2021/07/21 04:02:16;;;;;;;15.43;4.03;;;;;;;19.37;69.32;100724.16;5084983;28;20029;-69
2021/07/21 04:04:45;;;;;;;10.88;4.45;;;;;;;19.74;68.45;100744.63;5085330;28;20112;-69
2021/07/21 04:07:16;;;;;;;10.70;3.90;;;;;;;20.10;67.30;100740.53;5085002;28;20025;-69
2021/07/21 04:09:44;;;;;;;9.33;3.97;;;;;;;20.53;66.23;100741.28;5085120;28;20142;-68
2021/07/21 04:12:11;;;;;;;10.27;3.70;;;;;;;20.85;64.48;100737.22;5085200;28;20724;-67
2021/07/21 04:14:37;;;;;;;14.73;4.13;;;;;;;21.15;62.97;100742.03;5084664;28;20035;-67
2021/07/21 04:17:06;;;;;;;6.68;3.53;;;;;;;21.49;62.38;100743.00;5084759;28;20040;-69
2021/07/21 04:19:33;;;;;;;10.73;4.00;;;;;;;21.82;60.55;100759.09;5084812;28;20020;-68
2021/07/21 04:21:58;;;;;;;7.18;3.72;;;;;;;22.14;59.62;100764.53;5084545;28;20017;-70
2021/07/21 04:24:25;;;;;;;13.85;4.32;;;;;;;22.45;58.66;100762.91;5084742;28;20061;-70
2021/07/21 04:26:52;;;;;;;10.75;4.18;;;;;;;22.77;57.35;100770.06;5084422;28;20036;-69
2021/07/21 04:29:21;;;;;;;14.00;5.30;;;;;;;23.14;56.24;100769.84;5084732;28;20020;-69
2021/07/21 04:31:48;;;;;;;9.52;3.97;;;;;;;23.47;55.25;100766.25;5084350;28;20043;-70
2021/07/21 04:34:14;;;;;;;9.70;3.22;;;;;;;23.74;54.17;100768.25;5084531;28;20025;-69
2021/07/21 04:36:41;;;;;;;10.05;3.35;;;;;;;24.08;53.16;100778.66;5084370;28;20033;-69
2021/07/21 04:39:08;;;;;;;8.05;3.33;;;;;;;24.34;52.17;100773.59;5084409;28;20032;-68
2021/07/21 04:41:34;;;;;;;9.88;3.70;;;;;;;24.71;51.18;100783.72;5083125;28;20048;-69
2021/07/21 04:44:04;;;;;;;11.05;3.80;;;;;;;25.06;50.63;100781.63;5084070;28;20029;-70
2021/07/21 04:46:34;;;;;;;11.10;3.38;;;;;;;25.53;49.13;100784.78;5084429;28;20021;-69
2021/07/21 04:49:01;;;;;;;9.68;3.13;;;;;;;25.89;47.89;100782.47;5084193;28;20020;-68
2021/07/21 04:51:28;;;;;;;11.32;3.85;;;;;;;26.28;46.70;100784.31;5084470;28;20151;-68
2021/07/21 04:53:56;;;;;;;13.10;3.70;;;;;;;26.42;45.87;100791.38;5084291;28;20044;-68
2021/07/21 04:56:22;;;;;;;8.60;3.30;;;;;;;26.46;44.66;100793.69;5083827;28;20045;-68
2021/07/21 04:58:48;;;;;;;9.18;3.17;;;;;;;26.53;44.93;100798.59;5083943;28;20087;-68
2021/07/21 05:01:15;;;;;;;8.27;3.15;;;;;;;26.77;44.60;100800.47;5084192;28;20032;-68
2021/07/21 05:03:40;;;;;;;11.60;3.58;;;;;;;27.14;43.94;100807.66;5084064;28;20084;-70
2021/07/21 05:06:05;;;;;;;8.15;3.33;;;;;;;27.40;42.51;100803.06;5083720;28;20055;-69
2021/07/21 05:08:31;;;;;;;8.60;3.10;;;;;;;27.65;41.22;100797.72;5083549;28;20156;-69
2021/07/21 05:10:56;;;;;;;8.18;3.50;;;;;;;27.75;41.18;100805.94;5083817;28;20024;-69
2021/07/21 05:13:22;;;;;;;11.07;3.40;;;;;;;27.81;40.75;100805.47;5083528;28;20024;-70
2021/07/21 05:15:48;;;;;;;9.00;3.08;;;;;;;28.13;40.01;100804.78;5083811;28;20031;-69
2021/07/21 05:18:14;;;;;;;10.35;3.33;;;;;;;28.27;39.36;100809.09;5083334;28;20027;-69
2021/07/21 05:20:39;;;;;;;9.95;3.60;;;;;;;28.71;38.84;100808.38;5083468;28;20029;-69
2021/07/21 05:23:05;;;;;;;10.27;3.40;;;;;;;29.02;38.28;100811.31;5083328;28;20028;-68
2021/07/21 05:25:30;;;;;;;9.32;2.95;;;;;;;29.20;37.63;100814.28;5081813;28;20032;-68
2021/07/21 05:27:56;;;;;;;11.02;3.15;;;;;;;28.97;37.75;100810.81;5083188;28;20362;-69
2021/07/21 05:30:21;;;;;;;8.00;3.63;;;;;;;29.05;37.34;100812.88;5083292;28;20024;-69
2021/07/21 05:32:47;;;;;;;8.35;3.40;;;;;;;29.42;36.89;100822.38;5083528;28;20492;-69
2021/07/21 05:35:13;;;;;;;6.43;2.95;;;;;;;29.57;36.30;100825.59;5083433;28;20024;-71
2021/07/21 05:37:39;;;;;;;10.85;3.17;;;;;;;29.49;35.80;100822.72;5082022;28;20420;-69
2021/07/21 05:40:05;;;;;;;9.50;3.38;;;;;;;29.33;35.71;100823.97;5083525;28;20058;-69
2021/07/21 05:42:31;;;;;;;7.22;3.60;;;;;;;29.16;36.15;100826.22;5083186;28;20056;-69
2021/07/21 05:44:56;;;;;;;9.13;3.15;;;;;;;29.22;36.46;100827.53;5083405;28;20027;-69
2021/07/21 05:47:22;;;;;;;8.65;3.05;;;;;;;29.33;35.75;100826.66;5083090;28;20510;-70
2021/07/21 05:49:47;;;;;;;7.65;3.08;;;;;;;29.30;36.11;100822.41;5081846;28;20020;-68
2021/07/21 05:52:13;;;;;;;7.05;2.80;;;;;;;29.31;35.58;100834.78;5083280;28;20091;-71
2021/07/21 05:54:41;;;;;;;9.50;2.85;;;;;;;29.33;35.83;100837.34;5083488;28;20013;-70
2021/07/21 05:57:07;;;;;;;10.27;3.40;;;;;;;29.42;35.77;100844.63;5082986;28;20050;-70
2021/07/21 05:59:33;;;;;;;8.27;3.35;;;;;;;29.52;34.82;100842.03;5083209;28;20039;-71
2021/07/21 06:01:58;;;;;;;8.75;3.03;;;;;;;29.30;35.22;100848.28;5081743;28;20021;-69
2021/07/21 06:04:24;;;;;;;9.48;3.10;;;;;;;29.40;35.14;100851.94;5083012;28;20375;-69
2021/07/21 06:06:49;;;;;;;8.88;2.70;;;;;;;29.66;35.09;100843.59;5083403;28;20157;-71
2021/07/21 06:09:15;;;;;;;6.03;3.33;;;;;;;29.54;34.83;100836.53;5083242;28;20035;-69
2021/07/21 06:11:40;;;;;;;7.95;3.28;;;;;;;29.65;35.00;100849.09;5083167;28;20024;-70
2021/07/21 06:14:06;;;;;;;7.95;2.85;;;;;;;29.58;34.80;100855.91;5082962;28;20100;-71
2021/07/21 06:16:32;;;;;;;8.23;2.78;;;;;;;29.65;34.40;100857.94;5081623;28;20024;-69
2021/07/21 06:18:57;;;;;;;7.85;2.55;;;;;;;29.83;34.17;100851.19;5082888;28;20028;-69
2021/07/21 06:21:23;;;;;;;6.00;2.30;;;;;;;29.84;33.95;100859.09;5083189;28;20028;-69
2021/07/21 06:23:49;;;;;;;6.30;2.75;;;;;;;29.87;34.22;100869.56;5081792;28;20089;-70
2021/07/21 06:26:15;;;;;;;6.60;2.92;;;;;;;29.97;34.28;100868.78;5083052;28;20028;-70
2021/07/21 06:28:41;;;;;;;8.75;3.40;;;;;;;30.11;33.75;100876.50;5082823;28;20020;-69
2021/07/21 06:31:06;;;;;;;4.30;2.20;;;;;;;29.90;33.81;100874.63;5081612;28;20032;-70
2021/07/21 06:33:31;;;;;;;5.90;2.20;;;;;;;30.03;33.70;100876.28;5081659;28;20146;-70
2021/07/21 06:35:57;;;;;;;8.63;3.10;;;;;;;30.42;33.35;100879.25;5083054;28;20033;-70
2021/07/21 06:38:23;;;;;;;5.00;2.42;;;;;;;30.66;32.80;100872.72;5085375;28;20020;-69
2021/07/21 06:40:48;;;;;;;5.18;2.72;;;;;;;30.82;32.18;100887.50;5085494;28;20056;-68
2021/07/21 06:43:14;;;;;;;6.40;2.40;;;;;;;31.01;32.04;100888.53;5086701;28;20028;-69
2021/07/21 06:45:40;;;;;;;5.15;2.60;;;;;;;30.92;31.84;100885.72;5086651;28;20036;-69
2021/07/21 06:48:05;;;;;;;6.35;2.35;;;;;;;30.90;32.02;100890.34;5086479;28;20029;-69
2021/07/21 06:50:31;;;;;;;5.75;2.88;;;;;;;31.19;31.15;100895.94;5086624;28;20029;-68
2021/07/21 06:52:56;;;;;;;11.35;4.05;;;;;;;31.24;31.40;100893.69;5086685;28;20342;-72
2021/07/21 06:55:21;;;;;;;7.75;3.10;;;;;;;31.28;31.52;100911.19;5085296;28;20020;-71
2021/07/21 06:57:47;;;;;;;5.63;2.85;;;;;;;31.12;31.00;100907.22;5085032;28;20091;-71
2021/07/21 07:00:13;;;;;;;5.32;2.88;;;;;;;30.75;31.70;100905.91;5085996;28;20025;-70
2021/07/21 07:02:38;;;;;;;12.73;2.92;;;;;;;30.63;31.64;100912.31;5086080;28;20058;-69
2021/07/21 07:05:04;;;;;;;6.30;2.65;;;;;;;30.77;31.42;100911.13;5086393;28;20020;-70
2021/07/21 07:07:30;;;;;;;7.75;3.00;;;;;;;30.58;32.26;100920.75;5086342;28;20103;-66
2021/07/21 07:09:55;;;;;;;12.52;3.50;;;;;;;30.53;31.86;100920.31;5086022;28;20028;-64
2021/07/21 07:12:21;;;;;;;7.57;2.80;;;;;;;30.37;32.39;100921.63;5086033;28;20036;-61
2021/07/21 07:14:46;;;;;;;16.27;3.22;;;;;;;30.30;32.33;100918.63;5085927;28;20016;-71
2021/07/21 07:17:12;;;;;;;5.78;2.35;;;;;;;30.65;32.18;100921.09;5085725;28;20025;-66
2021/07/21 07:19:37;;;;;;;6.57;2.53;;;;;;;30.84;31.58;100922.19;5085628;28;20017;-63
2021/07/21 07:22:04;;;;;;;7.13;2.55;;;;;;;31.22;31.26;100917.97;5085550;28;20080;-63
2021/07/21 07:24:31;;;;;;;8.88;2.63;;;;;;;31.78;30.46;100928.25;5085607;28;20044;-74
2021/07/21 07:26:58;;;;;;;6.80;2.95;;;;;;;32.00;29.64;100924.47;5086082;28;20021;-72
2021/07/21 07:29:24;;;;;;;6.72;2.75;;;;;;;31.98;29.65;100923.75;5085361;28;20032;-73
2021/07/21 07:31:49;;;;;;;5.82;2.55;;;;;;;31.83;29.69;100931.38;5085737;28;20025;-62
2021/07/21 07:34:14;;;;;;;8.57;2.97;;;;;;;31.75;29.38;100924.03;5086014;28;20052;-72
2021/07/21 07:36:40;;;;;;;5.43;2.60;;;;;;;32.15;29.25;100926.75;5085844;28;20457;-69
2021/07/21 07:39:07;;;;;;;8.35;2.65;;;;;;;32.22;28.22;100929.72;5085697;28;20100;-70
2021/07/21 07:41:34;;;;;;;4.88;2.40;;;;;;;31.96;29.05;100933.81;5085745;28;20017;-68
2021/07/21 07:44:00;;;;;;;6.10;2.28;;;;;;;31.72;29.20;100934.19;5085499;28;20025;-70
2021/07/21 07:46:26;;;;;;;7.53;2.67;;;;;;;31.59;29.50;100934.44;5085616;28;20020;-71
2021/07/21 07:48:53;;;;;;;4.28;2.22;;;;;;;31.53;29.51;100931.38;5085004;28;20021;-71
2021/07/21 07:51:19;;;;;;;5.45;2.35;;;;;;;31.39;30.04;100937.94;5085581;28;20035;-70
2021/07/21 07:53:44;;;;;;;5.15;2.55;;;;;;;31.42;29.69;100936.84;5085636;28;20068;-70
2021/07/21 07:56:13;;;;;;;7.35;2.55;;;;;;;31.53;29.86;100935.88;5085280;28;20513;-71
2021/07/21 07:58:38;;;;;;;4.90;2.40;;;;;;;31.71;30.23;100940.56;5084092;28;20020;-71
2021/07/21 08:01:04;;;;;;;5.30;2.30;;;;;;;31.92;29.34;100951.16;5084071;28;20020;-71
2021/07/21 08:03:30;;;;;;;8.30;2.40;;;;;;;32.14;29.58;100954.59;5085430;28;20020;-71
2021/07/21 08:05:59;;;;;;;5.38;2.63;;;;;;;32.30;28.71;100951.34;5085310;28;20020;-70
2021/07/21 08:08:25;;;;;;;6.45;2.75;;;;;;;32.13;28.70;100958.25;5085105;28;20041;-72
2021/07/21 08:10:50;;;;;;;6.35;2.92;;;;;;;32.10;29.10;100959.38;5085166;28;20028;-72
2021/07/21 08:13:16;;;;;;;7.15;2.40;;;;;;;32.27;28.82;100957.00;5083887;28;20108;-71
2021/07/21 08:15:42;;;;;;;5.78;2.53;;;;;;;32.20;28.39;100953.16;5085110;28;20021;-72
2021/07/21 08:18:07;;;;;;;4.93;2.70;;;;;;;32.33;28.15;100956.41;5085207;28;20020;-65
2021/07/21 08:20:33;;;;;;;5.20;2.70;;;;;;;32.20;28.34;100954.03;5085103;28;20039;-71
2021/07/21 08:22:58;;;;;;;8.93;3.28;;;;;;;32.33;28.44;100952.88;5084657;28;20385;-71
2021/07/21 08:25:24;;;;;;;7.00;3.08;;;;;;;32.35;28.12;100957.09;5083977;28;20107;-70
2021/07/21 08:27:51;;;;;;;4.85;2.65;;;;;;;32.21;28.03;100955.72;5083645;28;20025;-72
2021/07/21 08:30:17;;;;;;;6.30;2.42;;;;;;;32.18;28.01;100955.13;5083120;28;20028;-70
2021/07/21 08:32:51;;;;;;;8.15;2.95;;;;;;;32.07;28.35;100957.00;5084669;28;20028;-71
2021/07/21 08:35:20;;;;;;;4.90;2.78;;;;;;;32.13;28.52;100956.41;5084554;28;20434;-70
2021/07/21 08:37:45;;;;;;;8.90;2.90;;;;;;;32.20;28.39;100956.72;5084542;28;20024;-70
2021/07/21 08:40:14;;;;;;;6.50;2.70;;;;;;;32.20;28.28;100962.06;5084327;28;20028;-70
2021/07/21 08:42:39;;;;;;;7.65;2.70;;;;;;;32.16;28.46;100960.66;5084401;28;20020;-71
2021/07/21 08:45:07;;;;;;;8.98;3.35;;;;;;;32.42;28.27;100973.50;5084335;28;20469;-72
2021/07/21 08:47:32;;;;;;;8.38;2.92;;;;;;;32.69;27.66;100969.22;5084197;28;20071;-72
2021/07/21 08:49:57;;;;;;;6.90;3.05;;;;;;;32.79;27.44;100974.59;5084435;28;20105;-72
2021/07/21 08:52:23;;;;;;;5.55;3.00;;;;;;;32.97;27.58;100973.81;5084266;28;20029;-71
2021/07/21 08:54:51;;;;;;;7.25;2.92;;;;;;;33.07;27.44;100966.59;5084229;28;20024;-70
2021/07/21 08:57:17;;;;;;;6.45;2.90;;;;;;;32.82;27.72;100968.91;5082982;28;20036;-70
2021/07/21 08:59:46;;;;;;;8.50;3.20;;;;;;;32.36;28.17;100984.81;5083055;28;20048;-71
2021/07/21 09:02:14;;;;;;;8.45;3.50;;;;;;;32.40;28.42;100979.00;5083112;28;20028;-72
2021/07/21 09:04:40;;;;;;;7.32;2.88;;;;;;;32.43;28.31;100990.47;5084016;28;20020;-71
2021/07/21 09:07:09;;;;;;;7.10;3.30;;;;;;;32.31;28.26;100985.25;5082608;28;20031;-71
2021/07/21 09:09:35;;;;;;;8.48;3.38;;;;;;;32.27;29.34;100991.91;5083955;28;20034;-70
2021/07/21 09:12:01;;;;;;;5.43;3.30;;;;;;;32.18;29.10;100995.41;5084031;28;20088;-71
2021/07/21 09:14:27;;;;;;;8.40;3.45;;;;;;;32.19;29.10;100995.28;5083802;28;20021;-70
2021/07/21 09:17:04;;;;;;;7.18;3.67;;;;;;;31.82;29.90;100994.13;5083952;28;20659;-70
2021/07/21 09:19:32;;;;;;;7.38;3.60;;;;;;;31.52;29.72;100987.81;5083865;28;20028;-70
2021/07/21 09:22:13;;;;;;;6.72;3.42;;;;;;;31.17;30.90;100990.78;5083726;28;20024;-70
2021/07/21 09:24:39;;;;;;;8.00;3.83;;;;;;;31.53;30.68;100993.06;5083795;28;20062;-70
2021/07/21 09:27:05;;;;;;;8.95;3.55;;;;;;;32.19;29.81;101006.00;5083753;28;20037;-70
2021/07/21 09:29:30;;;;;;;5.90;3.47;;;;;;;32.70;28.56;100996.97;5083729;28;20032;-71
2021/07/21 09:31:59;;;;;;;6.30;3.60;;;;;;;32.15;28.91;100999.25;5083856;28;20020;-71
2021/07/21 09:34:26;;;;;;;9.77;4.35;;;;;;;31.19;30.25;101009.41;5083622;28;20024;-71
2021/07/21 09:37:07;;;;;;;10.85;4.40;;;;;;;30.89;31.02;101003.91;5083759;28;20032;-70
2021/07/21 09:39:35;;;;;;;9.30;3.83;;;;;;;30.99;30.95;101011.97;5083856;28;20288;-70
2021/07/21 09:42:00;;;;;;;7.88;3.90;;;;;;;31.27;30.37;101006.06;5083469;28;20024;-70
2021/07/21 09:44:39;;;;;;;6.85;3.53;;;;;;;31.25;30.66;101008.88;5083618;28;20079;-70
2021/07/21 09:47:21;;;;;;;8.48;3.85;;;;;;;31.14;30.52;101007.13;5083532;28;20021;-70
2021/07/21 09:49:48;;;;;;;8.80;3.72;;;;;;;31.32;30.00;101019.91;5083583;28;20020;-70
2021/07/21 09:52:24;;;;;;;10.02;3.95;;;;;;;30.76;30.69;101014.81;5083430;28;20016;-70
2021/07/21 09:55:23;;;;;;;7.57;3.78;;;;;;;30.87;31.76;101010.38;5083527;28;20028;-71
2021/07/21 09:58:04;;;;;;;11.70;3.85;;;;;;;31.48;30.15;101013.22;5060242;28;20036;-70
2021/07/21 10:00:48;;;;;;;;;;;;;;;31.51;29.68;101004.91;5084284;28;20028;-70
2021/07/21 10:03:16;;;;;;;5.70;3.63;;;;;;;31.78;29.49;101014.16;5083334;28;19919;-71
2021/07/21 10:05:52;;;;;;;5.30;3.80;;;;;;;32.07;29.05;101021.44;5083588;28;20022;-70
2021/07/21 10:08:42;;;;;;;11.18;4.47;;;;;;;31.96;29.24;101016.19;5083502;28;20082;-70
2021/07/21 10:11:23;;;;;;;9.20;3.65;;;;;;;31.80;28.99;101022.91;5083601;28;20090;-70
2021/07/21 10:13:56;;;;;;;7.63;4.13;;;;;;;31.80;30.16;101012.19;5086856;28;20047;-70
2021/07/21 10:16:45;;;;;;;8.05;3.72;;;;;;;31.85;29.63;101020.69;5087188;28;20071;-71
2021/07/21 10:19:23;;;;;;;7.40;4.15;;;;;;;32.08;29.11;101020.44;5087244;28;20519;-71
2021/07/21 10:21:56;;;;;;;8.05;3.50;;;;;;;32.08;29.00;101025.81;5087307;28;20029;-70
2021/07/21 10:24:23;;;;;;;6.75;3.78;;;;;;;31.94;29.04;101031.53;5087332;28;20096;-69
2021/07/21 10:26:50;;;;;;;7.70;3.92;;;;;;;31.75;29.21;101020.66;5087457;28;20025;-70
2021/07/21 10:29:16;;;;;;;8.93;4.30;;;;;;;31.57;29.82;101022.31;5086940;28;20024;-70
2021/07/21 10:31:42;;;;;;;5.40;3.67;;;;;;;31.61;29.41;101015.66;5087208;28;20025;-70
2021/07/21 10:34:08;;;;;;;6.50;3.70;;;;;;;31.84;29.07;101018.13;5087085;28;20053;-70
2021/07/21 10:36:35;;;;;;;7.15;3.70;;;;;;;31.85;28.83;101020.69;5087269;28;20027;-70
2021/07/21 10:39:22;;;;;;;6.93;3.90;;;;;;;31.91;28.82;101019.25;5086761;28;20032;-70
2021/07/21 10:41:49;;;;;;;8.70;3.92;;;;;;;31.91;29.00;101019.25;5086534;28;20062;-70
2021/07/21 10:44:16;;;;;;;8.32;3.42;;;;;;;31.99;28.90;101018.59;5086836;28;20111;-71
2021/07/21 10:46:52;;;;;;;10.00;4.03;;;;;;;32.09;28.50;101011.41;5086821;28;20021;-70
2021/07/21 11:00:14;;;;;;;9.60;3.80;;;;;;;31.72;29.04;101022.75;5086676;28;20200;-70
2021/07/21 11:02:40;;;;;;;7.90;3.75;;;;;;;31.59;29.04;101021.16;5086371;28;20052;-72
2021/07/21 11:05:09;;;;;;;8.20;4.40;;;;;;;31.09;29.52;101019.25;5086327;28;20052;-71
2021/07/21 11:07:54;;;;;;;6.93;3.92;;;;;;;30.33;30.74;101013.06;5084706;28;20044;-71
2021/07/21 11:10:37;;;;;;;10.00;4.18;;;;;;;29.66;31.88;101012.16;5086162;28;20032;-64
2021/07/21 11:13:05;;;;;;;8.40;3.90;;;;;;;29.00;33.02;101021.69;5086168;28;20051;-69
2021/07/21 11:15:45;;;;;;;6.57;3.92;;;;;;;28.21;34.18;101033.78;5086127;28;20103;-67
2021/07/21 11:18:22;;;;;;;9.30;4.30;;;;;;;27.63;35.55;101037.00;5085916;28;20024;-71
2021/07/21 11:21:04;;;;;;;7.93;4.55;;;;;;;27.44;35.61;101022.31;5084992;28;20021;-72
2021/07/21 11:23:41;;;;;;;6.35;3.90;;;;;;;26.98;36.97;101027.19;5084091;28;20028;-73
2021/07/21 11:26:32;;;;;;;7.18;4.55;;;;;;;26.54;37.59;101039.88;5084524;28;20035;-73
2021/07/21 11:29:18;;;;;;;7.60;4.60;;;;;;;26.85;37.29;101024.50;5084607;28;20028;-73
2021/07/21 11:31:50;;;;;;;9.98;4.68;;;;;;;27.42;36.42;101030.41;5085734;28;20031;-72
2021/07/21 11:34:16;;;;;;;;;;;;;;;27.29;35.95;101037.56;5086014;28;20025;-71
2021/07/21 11:36:46;;;;;;;9.40;4.80;;;;;;;26.95;37.25;101038.91;5085685;28;19935;-72
2021/07/21 11:39:32;;;;;;;8.70;5.03;;;;;;;26.26;37.95;101039.00;5085613;28;20024;-71
2021/07/21 11:41:58;;;;;;;7.82;4.45;;;;;;;25.70;39.07;101040.75;5085836;28;20020;-70
2021/07/21 11:44:36;;;;;;;8.82;4.07;;;;;;;25.35;39.98;101036.66;5085216;28;20024;-70